Metar Cercanos

 

LEPA - Palma De Mallorc, Spain
Distance from station: ONO 38km
Actualización: Sun, 17-Oct-2021 5:00pm CEST
Few Clouds
Few Clouds
 Viento del SO
Viento: SO 17 km/h
Temperatura: 24°C
Rocío: 17°C
Humedad: 65%
Barómetro: 1018 hPa
Clouds: Few Clouds
Visibility: 10 km
Cloud details: Few Clouds 762 m
2021/10/17 15:00 LEPA 171500Z 23009KT 9999 FEW025TCU 24/17 Q1018 NOSIG
LEMH - Mahon/Menorca Is, Spain
Distance from station: ENE 105km
Actualización: Sun, 17-Oct-2021 5:00pm CEST
Few Clouds
Few Clouds
 Viento del varies
Viento: varies 7 km/h
Temperatura: 22°C
Rocío: 13°C
Humedad: 57%
Barómetro: 1019 hPa
Clouds: Few Clouds
Visibility: 10 km
Cloud details: Few Clouds 1006 m
2021/10/17 15:00 LEMH 171500Z VRB04KT 9999 FEW033 22/13 Q1019
 
LEIB - Ibiza/Es Codola, Spain
Distance from station: OSO 165km
Actualización: Sun, 17-Oct-2021 5:00pm CEST
Few Clouds
Few Clouds
 Viento del SSO
Viento: SSO 7 km/h
Temperatura: 22°C
Rocío: 17°C
Humedad: 73%
Barómetro: 1018 hPa
Clouds: Few Clouds
Visibility: 10 km
Cloud details: Few Clouds 1402 m
2021/10/17 15:00 LEIB 171500Z 21004KT 160V260 9999 FEW046 22/17 Q1018 NOSIG
LEBL - Barcelona Airpor, Spain
Distance from station: NNO 225km
Actualización: Sun, 17-Oct-2021 5:00pm CEST
Few Clouds
Few Clouds
 Viento del SE
Viento: SE 13 km/h
Temperatura: 21°C
Rocío: 16°C
Humedad: 73%
Barómetro: 1018 hPa
Clouds: Few Clouds
Visibility: 10 km
Cloud details: Few Clouds 914 m
2021/10/17 15:00 LEBL 171500Z 14007KT 110V170 9999 FEW030 21/16 Q1018 NOSIG
 
LEVC - Valencia (civ/Mi, Spain
Distance from station: NO 188km
Actualización: Sun, 17-Oct-2021 5:00pm CEST
Parcialmente nuboso
Parcialmente nuboso
 Viento del ENE
Viento: ENE 11 km/h
Temperatura: 20°C
Rocío: 17°C
Humedad: 83%
Barómetro: 1018 hPa
Clouds: Parcialmente nuboso
Visibility: 10 km
Cloud details: Few Clouds 366 m
Parcialmente nuboso 914 m
2021/10/17 15:00 LEVC 171500Z 06006KT 9999 FEW012 SCT030 20/17 Q1018 NOSIG
LEGE - Gerona/Costa Bra, Spain
Distance from station: N 276km
Actualización: Sun, 17-Oct-2021 5:00pm CEST
Parcialmente nuboso
Parcialmente nuboso
 Viento del S
Viento: S 17 km/h
Temperatura: 20°C
Rocío: 15°C
Humedad: 73%
Barómetro: 1018 hPa
Clouds: Parcialmente nuboso
Visibility: 10 km
Cloud details: Parcialmente nuboso 914 m
2021/10/17 15:00 LEGE 171500Z 18009KT 150V220 9999 SCT030 20/15 Q1018
 
LEAL - Alicante/El Alte, Spain
Distance from station: OSO 344km
Actualización: Sun, 17-Oct-2021 5:00pm CEST
Parcialmente nuboso
Parcialmente nuboso
 Viento del E
Viento: E 20 km/h
Temperatura: 21°C
Rocío: 19°C
Humedad: 88%
Barómetro: 1018 hPa
Clouds: Parcialmente nuboso
Visibility: 10 km
Cloud details: Few Clouds 244 m
Parcialmente nuboso 549 m
2021/10/17 15:00 LEAL 171500Z 09011KT 9999 FEW008 SCT018 21/19 Q1018 NOSIG
LEAM - Almeria Airport, Spain
Distance from station: SSO 56km
Actualización: Sun, 17-Oct-2021 5:00pm CEST
Few Clouds
Few Clouds
 Viento del SO
Viento: SO 11 km/h
Temperatura: 25°C
Rocío: 20°C
Humedad: 74%
Barómetro: 1016 hPa
Clouds: Few Clouds
Visibility: 10 km
Cloud details: Few Clouds 610 m
2021/10/17 15:00 LEAM 171500Z 22006KT 160V260 9999 FEW020 25/20 Q1016
 
LEZG - Zaragoza (mil/Ci, Spain
Distance from station: NO 431km
Actualización: Sun, 17-Oct-2021 5:00pm CEST
Parcialmente nuboso
Parcialmente nuboso
 Viento del varies
Viento: varies 4 km/h
Temperatura: 21°C
Rocío: 12°C
Humedad: 57%
Barómetro: 1018 hPa
Clouds: Parcialmente nuboso
Visibility: 10 km
Cloud details: Parcialmente nuboso 2134 m
2021/10/17 15:00 LEZG 171500Z VRB02KT 9999 SCT070 21/12 Q1018
LEMD - Madrid/Barajas, Spain
Distance from station: ONO 234km
Actualización: Sun, 17-Oct-2021 5:00pm CEST
Parcialmente nuboso
Parcialmente nuboso
 Viento del ENE
Viento: ENE 6 km/h
Temperatura: 22°C
Rocío: 12°C
Humedad: 53%
Barómetro: 1018 hPa
Clouds: Parcialmente nuboso
Visibility: 10 km
Cloud details: Parcialmente nuboso 1829 m
2021/10/17 15:00 LEMD 171500Z 07003KT 020V130 9999 SCT060 22/12 Q1018 NOSIG
 
LEGR - Granada Airport, Spain
Distance from station: OSO 62km
Actualización: Sun, 17-Oct-2021 5:00pm CEST
Few Clouds
Few Clouds
 Viento del O
Viento: O 17 km/h
Temperatura: 28°C
Rocío: 8°C
Humedad: 28%
Barómetro: 1018 hPa
Clouds: Few Clouds
Visibility: 10 km
Cloud details: Few Clouds 2438 m
2021/10/17 15:00 LEGR 171500Z 28009KT 250V310 9999 FEW080 28/08 Q1018
LEMG - Malaga (civ/Mil), Spain
Distance from station: OSO 227km
Actualización: Sun, 17-Oct-2021 5:00pm CEST
Despejado
Despejado
 Viento del SE
Viento: SE 17 km/h
Temperatura: 23°C
Rocío: 19°C
Humedad: 78%
Barómetro: 1017 hPa
Resumen: Despejado
Visibility: greater than 10 km
2021/10/17 15:00 LEMG 171500Z 13009KT CAVOK 23/19 Q1017 NOSIG
 
LEZL - Sevilla (civ/Mil, Spain
Distance from station: S 318km
Actualización: Sun, 17-Oct-2021 5:00pm CEST
Despejado
Despejado
 Viento del NO
Viento: NO 2 km/h
Temperatura: 29°C
Rocío: 8°C
Humedad: 27%
Barómetro: 1017 hPa
Resumen: Despejado
Visibility: greater than 10 km
2021/10/17 15:00 LEZL 171500Z 31001KT CAVOK 29/08 Q1017 NOSIG
LEVT - Vitoria, Spain
Distance from station: NO 226km
Actualización: Sun, 17-Oct-2021 5:00pm CEST
Muy nuboso
Muy nuboso
 Viento del ESE
Viento: ESE 7 km/h
Temperatura: 19°C
Rocío: 13°C
Humedad: 68%
Barómetro: 1018 hPa
Clouds: Muy nuboso
Visibility: 10 km
Cloud details: Few Clouds 1219 m
Muy nuboso 1524 m
2021/10/17 15:00 LEVT 171500Z 12004KT 080V190 9999 FEW040 BKN050 19/13 Q1018
 
LEBB - Bilbao/Sondica, Spain
Distance from station: NNO 235km
Actualización: Sun, 17-Oct-2021 5:00pm CEST
Muy nuboso
Muy nuboso
 Viento del E
Viento: E 13 km/h
Temperatura: 22°C
Rocío: 16°C
Humedad: 69%
Barómetro: 1017 hPa
Clouds: Muy nuboso
Visibility: 10 km
Cloud details: Few Clouds 1067 m
Muy nuboso 1890 m
2021/10/17 15:00 LEBB 171500Z 10007KT 070V130 9999 FEW035 BKN062 22/16 Q1017 NOSIG
LESO - San Sebastian/Fu, Spain
Distance from station: N 231km
Actualización: Sun, 17-Oct-2021 5:00pm CEST
Muy nuboso
Muy nuboso
 Viento del ONO
Viento: ONO 9 km/h
Temperatura: 20°C
Rocío: 16°C
Humedad: 78%
Barómetro: 1017 hPa
Clouds: Muy nuboso
Visibility: 10 km
Cloud details: Muy nuboso 1524 m
2021/10/17 15:00 LESO 171500Z 30005KT 270V330 9999 BKN050 20/16 Q1017
 
LEVD - Valladolid(Mil/C, Spain
Distance from station: ONO 239km
Actualización: Sun, 17-Oct-2021 5:00pm CEST
Parcialmente nuboso
Parcialmente nuboso
 Viento del SO
Viento: SO 11 km/h
Temperatura: 18°C
Rocío: 11°C
Humedad: 64%
Barómetro: 1019 hPa
Clouds: Parcialmente nuboso
Visibility: 10 km
Cloud details: Few Clouds 762 m
Parcialmente nuboso 1219 m
2021/10/17 15:00 LEVD 171500Z 22006KT 160V260 9999 FEW025 SCT040 18/11 Q1019
LESA - Salamanca (civ/M, Spain
Distance from station: ONO 349km
Actualización: Sun, 17-Oct-2021 5:00pm CEST
Muy nuboso
Muy nuboso
 Viento del OSO
Viento: OSO 17 km/h
Temperatura: 20°C
Rocío: 15°C
Humedad: 73%
Barómetro: 1019 hPa
Clouds: Muy nuboso
Visibility: 10 km
Cloud details: Parcialmente nuboso 610 m
Muy nuboso 975 m
Muy nuboso 1219 m
2021/10/17 15:00 LESA 171500Z 24009KT 210V280 9999 SCT020 BKN032 BKN040 20/15 Q1019
 
LEXJ - Santander/Paraya, Spain
Distance from station: NNO 247km
Actualización: Sun, 17-Oct-2021 5:00pm CEST
Muy nuboso
Muy nuboso
 Viento del NE
Viento: NE 11 km/h
Temperatura: 18°C
Rocío: 16°C
Humedad: 88%
Barómetro: 1016 hPa
Clouds: Muy nuboso
Visibility: 10 km
Cloud details: Muy nuboso 1981 m
2021/10/17 15:00 LEXJ 171500Z 04006KT 340V090 9999 BKN065 18/16 Q1016
LEAS - Asturias/Aviles, Spain
Distance from station: NO 214km
Actualización: Sun, 17-Oct-2021 5:00pm CEST
Few Clouds
Few Clouds
 Viento del ENE
Viento: ENE 7 km/h
Temperatura: 20°C
Rocío: 15°C
Humedad: 73%
Barómetro: 1016 hPa
Clouds: Few Clouds
Visibility: 10 km
Cloud details: Few Clouds 1097 m
2021/10/17 15:00 LEAS 171500Z 07004KT 030V130 9999 FEW036 20/15 Q1016 NOSIG
 
LECO - La Coruna/Alvedr, Spain
Distance from station: ONO 222km
Actualización: Sun, 17-Oct-2021 5:00pm CEST
Few Clouds
Few Clouds
 Viento del SSO
Viento: SSO 6 km/h
Temperatura: 23°C
Rocío: 16°C
Humedad: 65%
Barómetro: 1016 hPa
Clouds: Few Clouds
Visibility: 10 km
Cloud details: Few Clouds 914 m
2021/10/17 15:00 LECO 171500Z 20003KT 100V260 9999 FEW030 23/16 Q1016 NOSIG
LEVX - Vigo/Peinador, Spain
Distance from station: O 214km
Actualización: Sun, 17-Oct-2021 5:00pm CEST
Light drizzle, Muy nuboso
Light drizzle, Muy nuboso
 Viento del varies
Viento: varies 7 km/h
Temperatura: 19°C
Rocío: 19°C
Humedad: 100%
Barómetro: 1017 hPa
Resumen: Light Drizzle
Clouds: Muy nuboso
Visibility: 4 km
Cloud details: Muy nuboso 91 m
2021/10/17 15:00 LEVX 171500Z VRB04KT 4000 -DZ BKN003 19/19 Q1017 TEMPO 2900 DZ BKN005